sensor_id;sensor_type;location;lat;lon;timestamp;P1;durP1;ratioP1;P2;durP2;ratioP2
22455;SDS011;11395;53.204;6.502;2022-10-22T00:05:30;3.10;;;2.70;;
22455;SDS011;11395;53.204;6.502;2022-10-22T00:07:56;3.63;;;3.03;;
22455;SDS011;11395;53.204;6.502;2022-10-22T00:10:22;4.23;;;3.30;;
22455;SDS011;11395;53.204;6.502;2022-10-22T00:12:49;3.07;;;2.77;;
22455;SDS011;11395;53.204;6.502;2022-10-22T00:15:15;3.70;;;3.27;;
22455;SDS011;11395;53.204;6.502;2022-10-22T00:17:42;4.73;;;3.67;;
22455;SDS011;11395;53.204;6.502;2022-10-22T00:20:08;3.90;;;3.23;;
22455;SDS011;11395;53.204;6.502;2022-10-22T00:22:34;3.17;;;2.70;;
22455;SDS011;11395;53.204;6.502;2022-10-22T00:25:00;4.37;;;3.20;;
22455;SDS011;11395;53.204;6.502;2022-10-22T00:27:27;3.27;;;2.77;;
22455;SDS011;11395;53.204;6.502;2022-10-22T00:29:53;3.70;;;3.10;;
22455;SDS011;11395;53.204;6.502;2022-10-22T00:32:19;5.13;;;3.70;;
22455;SDS011;11395;53.204;6.502;2022-10-22T00:34:45;3.00;;;2.80;;
22455;SDS011;11395;53.204;6.502;2022-10-22T00:37:11;3.17;;;2.87;;
22455;SDS011;11395;53.204;6.502;2022-10-22T00:39:38;3.50;;;3.20;;
22455;SDS011;11395;53.204;6.502;2022-10-22T00:42:04;3.93;;;3.13;;
22455;SDS011;11395;53.204;6.502;2022-10-22T00:47:40;4.20;;;2.73;;
22455;SDS011;11395;53.204;6.502;2022-10-22T00:53:05;3.20;;;2.90;;
22455;SDS011;11395;53.204;6.502;2022-10-22T00:55:34;2.90;;;2.60;;
22455;SDS011;11395;53.204;6.502;2022-10-22T00:58:01;3.47;;;2.87;;
22455;SDS011;11395;53.204;6.502;2022-10-22T01:05:37;2.60;;;2.33;;
22455;SDS011;11395;53.204;6.502;2022-10-22T01:08:11;2.57;;;2.37;;
22455;SDS011;11395;53.204;6.502;2022-10-22T01:13:48;2.50;;;2.30;;
22455;SDS011;11395;53.204;6.502;2022-10-22T01:19:35;3.47;;;2.47;;
22455;SDS011;11395;53.204;6.502;2022-10-22T01:22:00;2.40;;;2.20;;
22455;SDS011;11395;53.204;6.502;2022-10-22T01:29:42;2.40;;;2.20;;
22455;SDS011;11395;53.204;6.502;2022-10-22T01:32:17;2.77;;;2.57;;
22455;SDS011;11395;53.204;6.502;2022-10-22T01:34:48;3.37;;;2.70;;
22455;SDS011;11395;53.204;6.502;2022-10-22T01:37:18;2.50;;;2.30;;
22455;SDS011;11395;53.204;6.502;2022-10-22T01:39:48;2.60;;;2.40;;
22455;SDS011;11395;53.204;6.502;2022-10-22T01:42:16;3.03;;;2.70;;
22455;SDS011;11395;53.204;6.502;2022-10-22T01:44:42;2.30;;;2.10;;
22455;SDS011;11395;53.204;6.502;2022-10-22T01:57:45;3.40;;;2.70;;
22455;SDS011;11395;53.204;6.502;2022-10-22T02:00:20;2.50;;;2.30;;
22455;SDS011;11395;53.204;6.502;2022-10-22T02:02:48;2.30;;;2.10;;
22455;SDS011;11395;53.204;6.502;2022-10-22T02:08:07;3.83;;;2.50;;
22455;SDS011;11395;53.204;6.502;2022-10-22T02:10:36;2.30;;;2.20;;
22455;SDS011;11395;53.204;6.502;2022-10-22T02:13:04;2.43;;;2.23;;
22455;SDS011;11395;53.204;6.502;2022-10-22T02:15:34;2.80;;;2.60;;
22455;SDS011;11395;53.204;6.502;2022-10-22T02:18:03;2.87;;;2.60;;
22455;SDS011;11395;53.204;6.502;2022-10-22T02:20:33;2.23;;;1.93;;
22455;SDS011;11395;53.204;6.502;2022-10-22T02:23:01;2.10;;;2.00;;
22455;SDS011;11395;53.204;6.502;2022-10-22T02:25:33;2.63;;;2.43;;
22455;SDS011;11395;53.204;6.502;2022-10-22T02:30:55;2.53;;;2.33;;
22455;SDS011;11395;53.204;6.502;2022-10-22T02:33:29;2.50;;;2.30;;
22455;SDS011;11395;53.204;6.502;2022-10-22T02:35:58;2.30;;;2.10;;
22455;SDS011;11395;53.204;6.502;2022-10-22T02:38:27;2.43;;;2.20;;
22455;SDS011;11395;53.204;6.502;2022-10-22T02:40:55;3.07;;;2.40;;
22455;SDS011;11395;53.204;6.502;2022-10-22T02:43:22;2.10;;;1.90;;
22455;SDS011;11395;53.204;6.502;2022-10-22T02:45:49;2.07;;;1.97;;
22455;SDS011;11395;53.204;6.502;2022-10-22T02:48:16;2.57;;;2.10;;
22455;SDS011;11395;53.204;6.502;2022-10-22T02:50:42;2.87;;;2.57;;
22455;SDS011;11395;53.204;6.502;2022-10-22T02:53:08;1.87;;;1.77;;
22455;SDS011;11395;53.204;6.502;2022-10-22T02:55:35;2.23;;;1.93;;
22455;SDS011;11395;53.204;6.502;2022-10-22T02:58:01;2.43;;;2.23;;
22455;SDS011;11395;53.204;6.502;2022-10-22T03:00:27;2.00;;;1.90;;
22455;SDS011;11395;53.204;6.502;2022-10-22T03:02:53;2.30;;;2.10;;
22455;SDS011;11395;53.204;6.502;2022-10-22T03:05:20;2.43;;;2.23;;
22455;SDS011;11395;53.204;6.502;2022-10-22T03:07:46;2.43;;;1.87;;
22455;SDS011;11395;53.204;6.502;2022-10-22T03:10:12;2.53;;;1.70;;
22455;SDS011;11395;53.204;6.502;2022-10-22T03:12:38;2.37;;;2.17;;
22455;SDS011;11395;53.204;6.502;2022-10-22T03:15:05;1.90;;;1.80;;
22455;SDS011;11395;53.204;6.502;2022-10-22T03:17:31;2.50;;;2.17;;
22455;SDS011;11395;53.204;6.502;2022-10-22T03:19:57;2.77;;;2.40;;
22455;SDS011;11395;53.204;6.502;2022-10-22T03:22:25;1.87;;;1.70;;
22455;SDS011;11395;53.204;6.502;2022-10-22T03:24:54;2.10;;;1.90;;
22455;SDS011;11395;53.204;6.502;2022-10-22T03:27:25;3.00;;;2.27;;
22455;SDS011;11395;53.204;6.502;2022-10-22T03:29:53;2.40;;;2.20;;
22455;SDS011;11395;53.204;6.502;2022-10-22T03:32:20;2.30;;;2.10;;
22455;SDS011;11395;53.204;6.502;2022-10-22T03:34:46;2.13;;;2.03;;
22455;SDS011;11395;53.204;6.502;2022-10-22T03:37:12;2.20;;;2.10;;
22455;SDS011;11395;53.204;6.502;2022-10-22T03:39:39;2.47;;;2.27;;
22455;SDS011;11395;53.204;6.502;2022-10-22T03:42:05;2.43;;;2.23;;
22455;SDS011;11395;53.204;6.502;2022-10-22T03:44:33;2.33;;;2.13;;
22455;SDS011;11395;53.204;6.502;2022-10-22T03:47:02;3.40;;;2.17;;
22455;SDS011;11395;53.204;6.502;2022-10-22T03:49:28;2.13;;;2.00;;
22455;SDS011;11395;53.204;6.502;2022-10-22T03:51:55;2.53;;;1.90;;
22455;SDS011;11395;53.204;6.502;2022-10-22T03:54:22;2.23;;;2.13;;
22455;SDS011;11395;53.204;6.502;2022-10-22T03:56:49;2.27;;;2.07;;
22455;SDS011;11395;53.204;6.502;2022-10-22T03:59:15;3.33;;;2.17;;
22455;SDS011;11395;53.204;6.502;2022-10-22T04:01:45;7.30;;;2.17;;
22455;SDS011;11395;53.204;6.502;2022-10-22T04:04:12;2.17;;;1.90;;
22455;SDS011;11395;53.204;6.502;2022-10-22T04:06:38;2.17;;;2.00;;
22455;SDS011;11395;53.204;6.502;2022-10-22T04:09:06;2.57;;;2.30;;
22455;SDS011;11395;53.204;6.502;2022-10-22T04:11:32;2.10;;;1.90;;
22455;SDS011;11395;53.204;6.502;2022-10-22T04:13:59;2.00;;;1.80;;
22455;SDS011;11395;53.204;6.502;2022-10-22T04:16:26;2.30;;;2.10;;
22455;SDS011;11395;53.204;6.502;2022-10-22T04:18:57;3.17;;;1.83;;
22455;SDS011;11395;53.204;6.502;2022-10-22T04:21:24;2.00;;;1.80;;
22455;SDS011;11395;53.204;6.502;2022-10-22T04:23:51;2.27;;;2.07;;
22455;SDS011;11395;53.204;6.502;2022-10-22T04:26:18;5.90;;;2.57;;
22455;SDS011;11395;53.204;6.502;2022-10-22T04:28:46;3.57;;;2.40;;
22455;SDS011;11395;53.204;6.502;2022-10-22T04:31:16;2.33;;;2.10;;
22455;SDS011;11395;53.204;6.502;2022-10-22T04:33:43;4.83;;;1.93;;
22455;SDS011;11395;53.204;6.502;2022-10-22T04:36:11;2.30;;;2.10;;
22455;SDS011;11395;53.204;6.502;2022-10-22T04:38:40;4.37;;;2.23;;
22455;SDS011;11395;53.204;6.502;2022-10-22T04:41:08;1.77;;;1.67;;
22455;SDS011;11395;53.204;6.502;2022-10-22T04:43:35;2.33;;;2.00;;
22455;SDS011;11395;53.204;6.502;2022-10-22T04:46:11;2.03;;;1.83;;
22455;SDS011;11395;53.204;6.502;2022-10-22T04:48:39;3.07;;;1.90;;
22455;SDS011;11395;53.204;6.502;2022-10-22T04:51:07;1.97;;;1.87;;
22455;SDS011;11395;53.204;6.502;2022-10-22T04:53:36;2.10;;;2.00;;
22455;SDS011;11395;53.204;6.502;2022-10-22T04:56:12;2.33;;;1.63;;
22455;SDS011;11395;53.204;6.502;2022-10-22T04:58:48;2.93;;;1.83;;
22455;SDS011;11395;53.204;6.502;2022-10-22T05:01:18;3.40;;;1.97;;
22455;SDS011;11395;53.204;6.502;2022-10-22T05:03:47;1.67;;;1.57;;
22455;SDS011;11395;53.204;6.502;2022-10-22T05:06:20;2.27;;;2.07;;
22455;SDS011;11395;53.204;6.502;2022-10-22T05:08:56;1.90;;;1.80;;
22455;SDS011;11395;53.204;6.502;2022-10-22T05:11:26;4.40;;;2.13;;
22455;SDS011;11395;53.204;6.502;2022-10-22T05:14:02;4.10;;;2.03;;
22455;SDS011;11395;53.204;6.502;2022-10-22T05:16:32;2.13;;;1.93;;
22455;SDS011;11395;53.204;6.502;2022-10-22T05:19:11;2.77;;;2.10;;
22455;SDS011;11395;53.204;6.502;2022-10-22T05:21:42;2.23;;;2.03;;
22455;SDS011;11395;53.204;6.502;2022-10-22T05:24:08;5.10;;;2.13;;
22455;SDS011;11395;53.204;6.502;2022-10-22T05:26:35;2.37;;;2.00;;
22455;SDS011;11395;53.204;6.502;2022-10-22T05:29:04;2.30;;;2.10;;
22455;SDS011;11395;53.204;6.502;2022-10-22T05:31:44;2.70;;;1.87;;
22455;SDS011;11395;53.204;6.502;2022-10-22T05:34:11;2.00;;;1.83;;
22455;SDS011;11395;53.204;6.502;2022-10-22T05:36:38;2.03;;;1.80;;
22455;SDS011;11395;53.204;6.502;2022-10-22T05:39:05;3.47;;;2.10;;
22455;SDS011;11395;53.204;6.502;2022-10-22T05:41:31;1.97;;;1.83;;
22455;SDS011;11395;53.204;6.502;2022-10-22T05:43:58;4.67;;;2.23;;
22455;SDS011;11395;53.204;6.502;2022-10-22T05:46:26;2.53;;;2.00;;
22455;SDS011;11395;53.204;6.502;2022-10-22T05:48:55;3.10;;;2.10;;
22455;SDS011;11395;53.204;6.502;2022-10-22T05:51:24;3.90;;;2.47;;
22455;SDS011;11395;53.204;6.502;2022-10-22T05:53:53;5.27;;;2.03;;
22455;SDS011;11395;53.204;6.502;2022-10-22T05:56:21;2.30;;;2.10;;
22455;SDS011;11395;53.204;6.502;2022-10-22T05:58:48;3.13;;;2.47;;
22455;SDS011;11395;53.204;6.502;2022-10-22T06:01:16;4.63;;;2.23;;
22455;SDS011;11395;53.204;6.502;2022-10-22T06:03:47;3.13;;;1.77;;
22455;SDS011;11395;53.204;6.502;2022-10-22T06:06:18;5.87;;;2.00;;
22455;SDS011;11395;53.204;6.502;2022-10-22T06:08:48;2.10;;;1.73;;
22455;SDS011;11395;53.204;6.502;2022-10-22T06:11:16;2.90;;;2.07;;
22455;SDS011;11395;53.204;6.502;2022-10-22T06:13:44;2.40;;;1.70;;
22455;SDS011;11395;53.204;6.502;2022-10-22T06:16:11;1.97;;;1.87;;
22455;SDS011;11395;53.204;6.502;2022-10-22T06:18:38;2.63;;;1.80;;
22455;SDS011;11395;53.204;6.502;2022-10-22T06:21:05;1.97;;;1.80;;
22455;SDS011;11395;53.204;6.502;2022-10-22T06:23:33;2.83;;;1.63;;
22455;SDS011;11395;53.204;6.502;2022-10-22T06:26:00;5.50;;;1.87;;
22455;SDS011;11395;53.204;6.502;2022-10-22T06:28:27;3.10;;;2.00;;
22455;SDS011;11395;53.204;6.502;2022-10-22T06:30:53;2.63;;;1.57;;
22455;SDS011;11395;53.204;6.502;2022-10-22T06:33:23;2.20;;;1.97;;
22455;SDS011;11395;53.204;6.502;2022-10-22T06:35:50;2.90;;;2.00;;
22455;SDS011;11395;53.204;6.502;2022-10-22T06:38:17;1.93;;;1.83;;
22455;SDS011;11395;53.204;6.502;2022-10-22T06:40:43;2.93;;;1.60;;
22455;SDS011;11395;53.204;6.502;2022-10-22T06:43:13;2.10;;;1.90;;
22455;SDS011;11395;53.204;6.502;2022-10-22T06:45:39;3.30;;;1.90;;
22455;SDS011;11395;53.204;6.502;2022-10-22T06:48:06;1.70;;;1.60;;
22455;SDS011;11395;53.204;6.502;2022-10-22T06:50:33;2.23;;;1.90;;
22455;SDS011;11395;53.204;6.502;2022-10-22T06:53:00;1.97;;;1.87;;
22455;SDS011;11395;53.204;6.502;2022-10-22T06:55:26;2.90;;;1.90;;
22455;SDS011;11395;53.204;6.502;2022-10-22T06:57:53;2.93;;;1.93;;
22455;SDS011;11395;53.204;6.502;2022-10-22T07:00:20;4.40;;;1.83;;
22455;SDS011;11395;53.204;6.502;2022-10-22T07:02:50;2.57;;;1.67;;
22455;SDS011;11395;53.204;6.502;2022-10-22T07:05:20;4.13;;;1.80;;
22455;SDS011;11395;53.204;6.502;2022-10-22T07:07:46;3.43;;;1.90;;
22455;SDS011;11395;53.204;6.502;2022-10-22T07:10:13;2.33;;;1.60;;
22455;SDS011;11395;53.204;6.502;2022-10-22T07:12:40;3.77;;;2.00;;
22455;SDS011;11395;53.204;6.502;2022-10-22T07:15:06;6.23;;;2.07;;
22455;SDS011;11395;53.204;6.502;2022-10-22T07:17:33;5.40;;;1.77;;
22455;SDS011;11395;53.204;6.502;2022-10-22T07:19:59;2.60;;;1.80;;
22455;SDS011;11395;53.204;6.502;2022-10-22T07:22:27;5.17;;;1.90;;
22455;SDS011;11395;53.204;6.502;2022-10-22T07:24:53;1.70;;;1.60;;
22455;SDS011;11395;53.204;6.502;2022-10-22T07:27:20;2.03;;;1.73;;
22455;SDS011;11395;53.204;6.502;2022-10-22T07:29:46;2.00;;;1.80;;
22455;SDS011;11395;53.204;6.502;2022-10-22T07:32:13;1.40;;;1.30;;
22455;SDS011;11395;53.204;6.502;2022-10-22T07:34:39;3.10;;;1.80;;
22455;SDS011;11395;53.204;6.502;2022-10-22T07:37:06;5.03;;;1.70;;
22455;SDS011;11395;53.204;6.502;2022-10-22T07:39:32;1.83;;;1.73;;
22455;SDS011;11395;53.204;6.502;2022-10-22T07:41:59;1.67;;;1.50;;
22455;SDS011;11395;53.204;6.502;2022-10-22T07:44:26;1.67;;;1.57;;
22455;SDS011;11395;53.204;6.502;2022-10-22T07:46:52;1.63;;;1.53;;
22455;SDS011;11395;53.204;6.502;2022-10-22T07:49:19;2.20;;;1.50;;
22455;SDS011;11395;53.204;6.502;2022-10-22T07:51:45;1.70;;;1.43;;
22455;SDS011;11395;53.204;6.502;2022-10-22T07:54:11;1.93;;;1.83;;
22455;SDS011;11395;53.204;6.502;2022-10-22T07:56:38;1.70;;;1.60;;
22455;SDS011;11395;53.204;6.502;2022-10-22T07:59:04;9.40;;;1.70;;
22455;SDS011;11395;53.204;6.502;2022-10-22T08:01:31;1.40;;;1.30;;
22455;SDS011;11395;53.204;6.502;2022-10-22T08:03:57;2.80;;;1.50;;
22455;SDS011;11395;53.204;6.502;2022-10-22T08:06:23;2.50;;;1.23;;
22455;SDS011;11395;53.204;6.502;2022-10-22T08:08:50;1.47;;;1.33;;
22455;SDS011;11395;53.204;6.502;2022-10-22T08:11:16;4.80;;;1.30;;
22455;SDS011;11395;53.204;6.502;2022-10-22T08:13:43;1.33;;;1.23;;
22455;SDS011;11395;53.204;6.502;2022-10-22T08:16:09;2.03;;;1.50;;
22455;SDS011;11395;53.204;6.502;2022-10-22T08:18:36;1.60;;;1.27;;
22455;SDS011;11395;53.204;6.502;2022-10-22T08:21:03;1.93;;;1.70;;
22455;SDS011;11395;53.204;6.502;2022-10-22T08:23:29;1.73;;;1.50;;
22455;SDS011;11395;53.204;6.502;2022-10-22T08:25:56;1.67;;;1.40;;
22455;SDS011;11395;53.204;6.502;2022-10-22T08:28:23;1.60;;;1.50;;
22455;SDS011;11395;53.204;6.502;2022-10-22T08:30:49;2.03;;;1.40;;
22455;SDS011;11395;53.204;6.502;2022-10-22T08:33:16;2.87;;;1.50;;
22455;SDS011;11395;53.204;6.502;2022-10-22T08:35:46;2.60;;;1.40;;
22455;SDS011;11395;53.204;6.502;2022-10-22T08:38:17;2.17;;;1.63;;
22455;SDS011;11395;53.204;6.502;2022-10-22T08:40:46;1.37;;;1.27;;
22455;SDS011;11395;53.204;6.502;2022-10-22T08:48:55;4.87;;;2.60;;
22455;SDS011;11395;53.204;6.502;2022-10-22T08:51:25;4.83;;;2.80;;
22455;SDS011;11395;53.204;6.502;2022-10-22T08:54:05;3.90;;;2.73;;
22455;SDS011;11395;53.204;6.502;2022-10-22T08:56:46;5.43;;;2.90;;
22455;SDS011;11395;53.204;6.502;2022-10-22T08:59:25;6.80;;;2.97;;
22455;SDS011;11395;53.204;6.502;2022-10-22T09:07:59;7.73;;;3.67;;
22455;SDS011;11395;53.204;6.502;2022-10-22T09:10:28;9.43;;;3.33;;
22455;SDS011;11395;53.204;6.502;2022-10-22T09:13:00;10.83;;;4.07;;
22455;SDS011;11395;53.204;6.502;2022-10-22T09:15:26;6.53;;;3.57;;
22455;SDS011;11395;53.204;6.502;2022-10-22T09:26:19;12.53;;;5.07;;
22455;SDS011;11395;53.204;6.502;2022-10-22T09:28:48;12.83;;;4.60;;
22455;SDS011;11395;53.204;6.502;2022-10-22T09:31:15;9.77;;;4.40;;
22455;SDS011;11395;53.204;6.502;2022-10-22T09:33:43;11.53;;;4.77;;
22455;SDS011;11395;53.204;6.502;2022-10-22T09:36:20;13.13;;;4.57;;
22455;SDS011;11395;53.204;6.502;2022-10-22T09:38:49;12.17;;;4.73;;
22455;SDS011;11395;53.204;6.502;2022-10-22T09:41:17;11.13;;;4.97;;
22455;SDS011;11395;53.204;6.502;2022-10-22T09:43:46;8.50;;;4.60;;
22455;SDS011;11395;53.204;6.502;2022-10-22T09:46:19;10.07;;;5.20;;
22455;SDS011;11395;53.204;6.502;2022-10-22T09:49:11;12.87;;;5.10;;
22455;SDS011;11395;53.204;6.502;2022-10-22T09:51:47;11.80;;;5.33;;
22455;SDS011;11395;53.204;6.502;2022-10-22T09:54:18;10.13;;;4.37;;
22455;SDS011;11395;53.204;6.502;2022-10-22T09:56:49;10.33;;;4.53;;
22455;SDS011;11395;53.204;6.502;2022-10-22T09:59:23;10.97;;;4.50;;
22455;SDS011;11395;53.204;6.502;2022-10-22T10:01:56;8.60;;;4.60;;
22455;SDS011;11395;53.204;6.502;2022-10-22T10:04:43;9.60;;;3.80;;
22455;SDS011;11395;53.204;6.502;2022-10-22T10:07:26;10.00;;;4.30;;
22455;SDS011;11395;53.204;6.502;2022-10-22T10:09:56;8.77;;;4.27;;
22455;SDS011;11395;53.204;6.502;2022-10-22T10:12:38;7.80;;;3.90;;
22455;SDS011;11395;53.204;6.502;2022-10-22T10:18:50;9.17;;;4.40;;
22455;SDS011;11395;53.204;6.502;2022-10-22T10:21:03;6.50;;;3.70;;
22455;SDS011;11395;53.204;6.502;2022-10-22T10:23:55;9.40;;;4.30;;
22455;SDS011;11395;53.204;6.502;2022-10-22T10:26:44;7.40;;;3.60;;
22455;SDS011;11395;53.204;6.502;2022-10-22T10:29:19;6.37;;;3.67;;
22455;SDS011;11395;53.204;6.502;2022-10-22T10:32:08;9.10;;;4.47;;
22455;SDS011;11395;53.204;6.502;2022-10-22T10:37:33;6.90;;;3.77;;
22455;SDS011;11395;53.204;6.502;2022-10-22T10:42:42;8.00;;;3.73;;
22455;SDS011;11395;53.204;6.502;2022-10-22T10:51:04;8.40;;;3.70;;
22455;SDS011;11395;53.204;6.502;2022-10-22T10:53:56;9.77;;;3.97;;
22455;SDS011;11395;53.204;6.502;2022-10-22T11:02:36;8.70;;;3.47;;
22455;SDS011;11395;53.204;6.502;2022-10-22T11:05:14;8.80;;;3.67;;
22455;SDS011;11395;53.204;6.502;2022-10-22T11:08:00;5.37;;;3.20;;
22455;SDS011;11395;53.204;6.502;2022-10-22T11:10:53;5.17;;;3.30;;
22455;SDS011;11395;53.204;6.502;2022-10-22T11:13:33;8.07;;;3.37;;
22455;SDS011;11395;53.204;6.502;2022-10-22T11:21:21;6.73;;;3.00;;
22455;SDS011;11395;53.204;6.502;2022-10-22T11:29:21;5.23;;;3.40;;
22455;SDS011;11395;53.204;6.502;2022-10-22T11:31:55;5.27;;;3.13;;
22455;SDS011;11395;53.204;6.502;2022-10-22T11:34:24;5.27;;;3.17;;
22455;SDS011;11395;53.204;6.502;2022-10-22T11:37:11;4.60;;;3.30;;
22455;SDS011;11395;53.204;6.502;2022-10-22T11:39:44;7.27;;;3.30;;
22455;SDS011;11395;53.204;6.502;2022-10-22T11:42:23;4.33;;;2.90;;
22455;SDS011;11395;53.204;6.502;2022-10-22T11:48:16;5.27;;;3.20;;
22455;SDS011;11395;53.204;6.502;2022-10-22T11:56:39;4.43;;;2.60;;
22455;SDS011;11395;53.204;6.502;2022-10-22T11:59:07;5.43;;;3.13;;
22455;SDS011;11395;53.204;6.502;2022-10-22T12:04:54;5.60;;;2.80;;
22455;SDS011;11395;53.204;6.502;2022-10-22T12:08:00;4.47;;;2.83;;
22455;SDS011;11395;53.204;6.502;2022-10-22T12:10:35;4.47;;;2.77;;
22455;SDS011;11395;53.204;6.502;2022-10-22T12:13:23;6.17;;;2.80;;
22455;SDS011;11395;53.204;6.502;2022-10-22T12:15:53;5.77;;;3.10;;
22455;SDS011;11395;53.204;6.502;2022-10-22T12:18:26;4.23;;;2.53;;
22455;SDS011;11395;53.204;6.502;2022-10-22T12:20:59;4.67;;;2.87;;
22455;SDS011;11395;53.204;6.502;2022-10-22T12:23:28;6.80;;;3.00;;
22455;SDS011;11395;53.204;6.502;2022-10-22T12:25:59;6.37;;;3.70;;
22455;SDS011;11395;53.204;6.502;2022-10-22T12:28:28;4.00;;;3.30;;
22455;SDS011;11395;53.204;6.502;2022-10-22T12:30:57;5.27;;;3.10;;
22455;SDS011;11395;53.204;6.502;2022-10-22T12:33:24;5.73;;;3.20;;
22455;SDS011;11395;53.204;6.502;2022-10-22T12:35:53;3.90;;;3.20;;
22455;SDS011;11395;53.204;6.502;2022-10-22T12:38:25;3.20;;;2.50;;
22455;SDS011;11395;53.204;6.502;2022-10-22T12:40:54;3.63;;;2.50;;
22455;SDS011;11395;53.204;6.502;2022-10-22T12:43:24;3.90;;;2.90;;
22455;SDS011;11395;53.204;6.502;2022-10-22T12:45:53;5.73;;;3.13;;
22455;SDS011;11395;53.204;6.502;2022-10-22T12:48:37;4.70;;;3.23;;
22455;SDS011;11395;53.204;6.502;2022-10-22T12:51:12;6.07;;;2.93;;
22455;SDS011;11395;53.204;6.502;2022-10-22T12:53:46;6.93;;;3.17;;
22455;SDS011;11395;53.204;6.502;2022-10-22T12:56:49;3.67;;;2.57;;
22455;SDS011;11395;53.204;6.502;2022-10-22T12:59:19;4.60;;;2.40;;
22455;SDS011;11395;53.204;6.502;2022-10-22T13:01:50;4.77;;;2.50;;
22455;SDS011;11395;53.204;6.502;2022-10-22T13:04:36;5.67;;;2.80;;
22455;SDS011;11395;53.204;6.502;2022-10-22T13:07:05;3.83;;;2.60;;
22455;SDS011;11395;53.204;6.502;2022-10-22T13:09:42;4.70;;;2.50;;
22455;SDS011;11395;53.204;6.502;2022-10-22T13:12:09;3.63;;;2.40;;
22455;SDS011;11395;53.204;6.502;2022-10-22T13:14:42;4.20;;;2.50;;
22455;SDS011;11395;53.204;6.502;2022-10-22T13:17:17;4.90;;;2.80;;
22455;SDS011;11395;53.204;6.502;2022-10-22T13:22:35;2.77;;;2.33;;
22455;SDS011;11395;53.204;6.502;2022-10-22T13:28:30;4.10;;;2.10;;
22455;SDS011;11395;53.204;6.502;2022-10-22T13:30:33;2.37;;;2.13;;
22455;SDS011;11395;53.204;6.502;2022-10-22T13:35:30;3.70;;;2.40;;
22455;SDS011;11395;53.204;6.502;2022-10-22T13:37:59;3.97;;;1.87;;
22455;SDS011;11395;53.204;6.502;2022-10-22T13:40:25;2.10;;;1.90;;
22455;SDS011;11395;53.204;6.502;2022-10-22T13:42:52;3.97;;;2.10;;
22455;SDS011;11395;53.204;6.502;2022-10-22T13:45:19;2.57;;;2.20;;
22455;SDS011;11395;53.204;6.502;2022-10-22T13:47:55;1.97;;;1.80;;
22455;SDS011;11395;53.204;6.502;2022-10-22T13:50:27;3.83;;;1.93;;
22455;SDS011;11395;53.204;6.502;2022-10-22T13:52:54;3.90;;;2.30;;
22455;SDS011;11395;53.204;6.502;2022-10-22T13:55:27;2.53;;;2.07;;
22455;SDS011;11395;53.204;6.502;2022-10-22T13:58:10;3.43;;;2.00;;
22455;SDS011;11395;53.204;6.502;2022-10-22T14:00:40;3.70;;;2.30;;
22455;SDS011;11395;53.204;6.502;2022-10-22T14:03:11;3.87;;;2.03;;
22455;SDS011;11395;53.204;6.502;2022-10-22T14:05:47;6.20;;;2.10;;
22455;SDS011;11395;53.204;6.502;2022-10-22T14:08:17;2.40;;;2.00;;
22455;SDS011;11395;53.204;6.502;2022-10-22T14:10:49;2.47;;;2.00;;
22455;SDS011;11395;53.204;6.502;2022-10-22T14:13:16;2.23;;;1.70;;
22455;SDS011;11395;53.204;6.502;2022-10-22T14:15:44;2.73;;;1.97;;
22455;SDS011;11395;53.204;6.502;2022-10-22T14:18:17;2.77;;;1.97;;
22455;SDS011;11395;53.204;6.502;2022-10-22T14:20:55;2.93;;;1.90;;
22455;SDS011;11395;53.204;6.502;2022-10-22T14:23:27;2.93;;;1.80;;
22455;SDS011;11395;53.204;6.502;2022-10-22T14:26:04;3.13;;;2.00;;
22455;SDS011;11395;53.204;6.502;2022-10-22T14:28:33;1.90;;;1.80;;
22455;SDS011;11395;53.204;6.502;2022-10-22T14:30:59;3.03;;;2.10;;
22455;SDS011;11395;53.204;6.502;2022-10-22T14:33:27;2.50;;;1.70;;
22455;SDS011;11395;53.204;6.502;2022-10-22T14:35:56;2.60;;;1.77;;
22455;SDS011;11395;53.204;6.502;2022-10-22T14:38:22;3.80;;;1.93;;
22455;SDS011;11395;53.204;6.502;2022-10-22T14:40:49;3.13;;;1.63;;
22455;SDS011;11395;53.204;6.502;2022-10-22T14:46:10;2.17;;;1.90;;
22455;SDS011;11395;53.204;6.502;2022-10-22T14:48:38;1.83;;;1.73;;
22455;SDS011;11395;53.204;6.502;2022-10-22T14:51:06;3.40;;;2.17;;
22455;SDS011;11395;53.204;6.502;2022-10-22T14:53:39;3.17;;;1.70;;
22455;SDS011;11395;53.204;6.502;2022-10-22T14:56:12;2.67;;;2.47;;
22455;SDS011;11395;53.204;6.502;2022-10-22T14:58:44;2.73;;;1.90;;
22455;SDS011;11395;53.204;6.502;2022-10-22T15:01:23;1.90;;;1.70;;
22455;SDS011;11395;53.204;6.502;2022-10-22T15:03:56;1.97;;;1.70;;
22455;SDS011;11395;53.204;6.502;2022-10-22T15:06:25;2.10;;;1.90;;
22455;SDS011;11395;53.204;6.502;2022-10-22T15:09:04;2.97;;;1.97;;
22455;SDS011;11395;53.204;6.502;2022-10-22T15:16:08;1.80;;;1.70;;
22455;SDS011;11395;53.204;6.502;2022-10-22T15:19:01;2.27;;;1.73;;
22455;SDS011;11395;53.204;6.502;2022-10-22T15:22:39;2.23;;;1.80;;
22455;SDS011;11395;53.204;6.502;2022-10-22T15:25:24;2.37;;;1.80;;
22455;SDS011;11395;53.204;6.502;2022-10-22T15:28:26;1.87;;;1.70;;
22455;SDS011;11395;53.204;6.502;2022-10-22T15:31:44;2.90;;;2.23;;
22455;SDS011;11395;53.204;6.502;2022-10-22T15:34:21;1.93;;;1.70;;
22455;SDS011;11395;53.204;6.502;2022-10-22T15:36:58;4.07;;;1.97;;
22455;SDS011;11395;53.204;6.502;2022-10-22T15:39:37;2.53;;;1.70;;
22455;SDS011;11395;53.204;6.502;2022-10-22T15:42:20;2.67;;;1.80;;
22455;SDS011;11395;53.204;6.502;2022-10-22T15:44:55;1.90;;;1.80;;
22455;SDS011;11395;53.204;6.502;2022-10-22T15:47:44;1.90;;;1.70;;
22455;SDS011;11395;53.204;6.502;2022-10-22T15:50:39;1.57;;;1.47;;
22455;SDS011;11395;53.204;6.502;2022-10-22T15:53:10;3.33;;;2.00;;
22455;SDS011;11395;53.204;6.502;2022-10-22T15:55:41;3.23;;;1.77;;
22455;SDS011;11395;53.204;6.502;2022-10-22T15:58:39;7.43;;;2.00;;
22455;SDS011;11395;53.204;6.502;2022-10-22T16:01:07;1.47;;;1.33;;
22455;SDS011;11395;53.204;6.502;2022-10-22T16:03:38;1.90;;;1.70;;
22455;SDS011;11395;53.204;6.502;2022-10-22T16:06:14;1.80;;;1.70;;
22455;SDS011;11395;53.204;6.502;2022-10-22T16:08:53;2.13;;;1.60;;
22455;SDS011;11395;53.204;6.502;2022-10-22T16:11:30;1.87;;;1.43;;
22455;SDS011;11395;53.204;6.502;2022-10-22T16:14:31;1.60;;;1.33;;
22455;SDS011;11395;53.204;6.502;2022-10-22T16:17:09;2.67;;;2.10;;
22455;SDS011;11395;53.204;6.502;2022-10-22T16:19:37;2.60;;;2.20;;
22455;SDS011;11395;53.204;6.502;2022-10-22T16:22:08;4.77;;;2.57;;
22455;SDS011;11395;53.204;6.502;2022-10-22T16:24:38;3.37;;;2.40;;
22455;SDS011;11395;53.204;6.502;2022-10-22T16:27:11;6.80;;;4.83;;
22455;SDS011;11395;53.204;6.502;2022-10-22T16:29:47;23.27;;;13.53;;
22455;SDS011;11395;53.204;6.502;2022-10-22T16:32:13;23.67;;;14.03;;
22455;SDS011;11395;53.204;6.502;2022-10-22T16:34:43;27.53;;;14.30;;
22455;SDS011;11395;53.204;6.502;2022-10-22T16:37:10;21.90;;;14.03;;
22455;SDS011;11395;53.204;6.502;2022-10-22T16:39:36;25.97;;;12.10;;
22455;SDS011;11395;53.204;6.502;2022-10-22T16:42:03;20.27;;;12.10;;
22455;SDS011;11395;53.204;6.502;2022-10-22T16:44:30;31.13;;;13.17;;
22455;SDS011;11395;53.204;6.502;2022-10-22T16:46:56;19.63;;;11.83;;
22455;SDS011;11395;53.204;6.502;2022-10-22T16:49:23;16.07;;;10.43;;
22455;SDS011;11395;53.204;6.502;2022-10-22T16:51:49;19.40;;;11.57;;
22455;SDS011;11395;53.204;6.502;2022-10-22T16:54:16;20.30;;;10.63;;
22455;SDS011;11395;53.204;6.502;2022-10-22T16:56:42;20.00;;;10.47;;
22455;SDS011;11395;53.204;6.502;2022-10-22T16:59:09;18.97;;;10.87;;
22455;SDS011;11395;53.204;6.502;2022-10-22T17:01:35;20.63;;;9.97;;
22455;SDS011;11395;53.204;6.502;2022-10-22T17:04:02;16.53;;;9.50;;
22455;SDS011;11395;53.204;6.502;2022-10-22T17:06:28;18.23;;;9.63;;
22455;SDS011;11395;53.204;6.502;2022-10-22T17:08:54;13.87;;;8.73;;
22455;SDS011;11395;53.204;6.502;2022-10-22T17:11:21;11.57;;;6.00;;